Time;durP1;ratioP1;P1;durP2;ratioP2;P2;SDS_P1;SDS_P2;PMS_P1;PMS_P2;Temp;Humidity;BMP_temperature;BMP_pressure;BME280_temperature;BME280_humidity;BME280_pressure;Samples;Min_cycle;Max_cycle;Signal;HPM_P1;HPM_P2
2021/11/06 00:01:57;;;;;;;27.25;17.55;;;5.30;99.90;;;;;;5051977;28;20029;-64
2021/11/06 00:04:23;;;;;;;33.38;19.60;;;5.20;99.90;;;;;;5051426;28;20355;-66
2021/11/06 00:06:48;;;;;;;29.98;18.63;;;5.20;99.90;;;;;;5051665;28;20108;-66
2021/11/06 00:09:14;;;;;;;36.05;20.00;;;5.20;99.90;;;;;;5051664;28;20025;-64
2021/11/06 00:11:40;;;;;;;30.60;18.17;;;5.20;99.90;;;;;;5051561;28;20029;-65
2021/11/06 00:14:05;;;;;;;27.45;17.70;;;5.20;99.90;;;;;;5051628;28;20059;-65
2021/11/06 00:16:31;;;;;;;26.23;17.83;;;5.20;99.90;;;;;;5050861;28;20017;-65
2021/11/06 00:18:56;;;;;;;32.58;19.25;;;5.20;99.90;;;;;;5051632;28;20494;-65
2021/11/06 00:21:22;;;;;;;30.77;18.83;;;5.20;99.90;;;;;;5051659;28;20028;-66
2021/11/06 00:23:48;;;;;;;34.03;19.17;;;5.20;99.90;;;;;;5051478;28;20021;-65
2021/11/06 00:26:13;;;;;;;39.47;19.05;;;5.20;99.90;;;;;;5050690;28;20032;-65
2021/11/06 00:28:39;;;;;;;31.83;18.85;;;5.30;99.90;;;;;;5051464;28;20029;-64
2021/11/06 00:31:05;;;;;;;33.55;20.17;;;5.10;99.90;;;;;;5051372;28;20112;-65
2021/11/06 00:33:31;;;;;;;33.15;19.73;;;5.10;99.90;;;;;;5051498;28;20489;-64
2021/11/06 00:35:57;;;;;;;33.10;19.88;;;5.30;99.90;;;;;;5051102;28;20028;-65
2021/11/06 00:38:22;;;;;;;39.55;20.60;;;5.20;99.90;;;;;;5051187;28;20387;-65
2021/11/06 00:40:48;;;;;;;38.92;19.45;;;5.20;99.90;;;;;;5051216;28;20021;-64
2021/11/06 00:43:13;;;;;;;33.60;19.60;;;5.30;99.90;;;;;;5051298;28;20021;-65
2021/11/06 00:45:39;;;;;;;34.20;20.17;;;5.60;99.90;;;;;;5050645;28;20032;-65
2021/11/06 00:48:05;;;;;;;39.15;20.23;;;5.30;99.90;;;;;;5051457;28;20059;-65
2021/11/06 00:50:31;;;;;;;27.60;18.40;;;5.30;99.90;;;;;;5051362;28;20063;-65
2021/11/06 00:52:58;;;;;;;47.53;19.83;;;5.60;99.90;;;;;;5051138;28;20032;-65
2021/11/06 00:55:24;;;;;;;26.55;17.20;;;5.30;99.90;;;;;;5050770;28;20434;-65
2021/11/06 00:57:50;;;;;;;77.40;21.25;;;5.20;99.90;;;;;;5055614;28;20063;-64
2021/11/06 01:00:18;;;;;;;27.45;18.17;;;5.20;99.90;;;;;;5055150;28;20025;-64
2021/11/06 01:02:43;;;;;;;30.48;19.58;;;5.20;99.90;;;;;;5055149;28;20475;-65
2021/11/06 01:05:10;;;;;;;27.58;18.48;;;5.30;99.90;;;;;;5054409;28;20028;-65
2021/11/06 01:07:36;;;;;;;54.42;19.45;;;5.40;99.90;;;;;;5054756;28;20035;-65
2021/11/06 01:10:05;;;;;;;57.00;18.67;;;5.30;99.90;;;;;;5055288;28;20021;-64
2021/11/06 01:12:30;;;;;;;35.50;19.48;;;5.30;99.90;;;;;;5054782;28;20036;-65
2021/11/06 01:14:56;;;;;;;52.08;18.88;;;5.20;99.90;;;;;;5054301;28;20017;-65
2021/11/06 01:17:22;;;;;;;67.90;19.50;;;5.50;99.90;;;;;;5054777;28;20025;-65
2021/11/06 01:19:47;;;;;;;67.05;18.52;;;5.10;99.90;;;;;;5054901;28;20036;-64
2021/11/06 01:22:13;;;;;;;33.33;16.75;;;5.10;99.90;;;;;;5054646;28;20534;-63
2021/11/06 01:24:40;;;;;;;49.78;17.38;;;5.30;99.90;;;;;;5054084;28;20387;-64
2021/11/06 01:27:10;;;;;;;30.67;16.55;;;5.20;99.90;;;;;;5053036;28;20033;-64
2021/11/06 01:29:36;;;;;;;24.70;17.20;;;5.00;99.90;;;;;;5054467;28;20040;-63
2021/11/06 01:32:02;;;;;;;25.50;17.42;;;5.00;99.90;;;;;;5054807;28;20025;-63
2021/11/06 01:34:27;;;;;;;33.15;17.98;;;4.90;99.90;;;;;;5054271;28;20471;-63
2021/11/06 01:36:53;;;;;;;27.88;18.60;;;4.80;99.90;;;;;;5054465;28;20021;-62
2021/11/06 01:39:18;;;;;;;27.33;17.65;;;4.90;99.90;;;;;;5054493;28;20064;-65
2021/11/06 01:41:44;;;;;;;83.32;17.80;;;5.00;99.90;;;;;;5054292;28;20820;-64
2021/11/06 01:44:11;;;;;;;24.25;16.90;;;5.10;99.90;;;;;;5054456;28;20104;-62
2021/11/06 01:46:37;;;;;;;25.85;17.30;;;4.90;99.90;;;;;;5053527;28;20025;-64
2021/11/06 01:49:03;;;;;;;49.78;18.98;;;5.00;99.90;;;;;;5054128;28;20040;-64
2021/11/06 01:51:28;;;;;;;42.28;19.33;;;4.90;99.90;;;;;;5054145;28;20021;-63
2021/11/06 01:53:55;;;;;;;97.32;21.60;;;5.30;99.90;;;;;;5054133;28;20021;-63
2021/11/06 01:56:21;;;;;;;40.97;19.90;;;4.80;99.90;;;;;;5053192;28;20029;-63
2021/11/06 01:58:46;;;;;;;29.70;20.00;;;4.80;99.90;;;;;;5054021;28;20394;-63
2021/11/06 02:01:12;;;;;;;163.90;24.38;;;4.80;99.90;;;;;;5054060;28;20033;-63
2021/11/06 02:03:38;;;;;;;33.10;18.27;;;4.80;99.90;;;;;;5053973;28;20025;-63
2021/11/06 02:06:04;;;;;;;31.63;20.00;;;4.80;99.90;;;;;;5052978;28;20043;-64
2021/11/06 02:08:30;;;;;;;26.73;18.63;;;4.70;99.90;;;;;;5053822;28;20025;-63
2021/11/06 02:10:55;;;;;;;339.92;27.23;;;4.70;99.90;;;;;;5035729;28;20040;-62
2021/11/06 02:13:21;;;;;;;38.90;21.50;;;4.80;99.90;;;;;;5053864;28;20032;-64
2021/11/06 02:15:47;;;;;;;156.88;25.13;;;4.90;99.90;;;;;;5053306;28;20024;-65
2021/11/06 02:18:14;;;;;;;149.15;20.80;;;4.90;99.90;;;;;;5053666;28;20713;-65
2021/11/06 02:20:45;;;;;;;34.17;17.25;;;4.80;99.90;;;;;;5053459;28;20029;-65
2021/11/06 02:23:11;;;;;;;30.60;19.33;;;4.70;99.90;;;;;;5053865;28;20438;-64
2021/11/06 02:25:36;;;;;;;68.95;18.85;;;4.70;99.90;;;;;;5052943;28;20021;-63
2021/11/06 02:28:02;;;;;;;136.70;19.98;;;3.40;99.90;;;;;;5053388;28;20037;-63
2021/11/06 02:30:28;;;;;;;132.07;17.52;;;4.70;99.90;;;;;;5053462;28;20395;-64
2021/11/06 02:32:54;;;;;;;202.00;21.25;;;4.70;99.90;;;;;;5035498;28;20029;-64
2021/11/06 02:35:20;;;;;;;83.80;18.95;;;5.10;99.90;;;;;;5052719;28;20025;-63
2021/11/06 02:37:46;;;;;;;35.63;18.17;;;4.60;99.90;;;;;;5052980;28;20024;-64
2021/11/06 02:40:12;;;;;;;35.83;18.05;;;4.60;99.90;;;;;;5053297;28;20075;-64
2021/11/06 02:42:38;;;;;;;48.20;19.33;;;4.60;99.90;;;;;;5053231;28;20025;-63
2021/11/06 02:45:06;;;;;;;90.45;20.70;;;4.60;99.90;;;;;;5052484;28;20391;-64
2021/11/06 02:47:32;;;;;;;38.25;18.88;;;4.70;99.90;;;;;;5053130;28;20039;-63
2021/11/06 02:49:58;;;;;;;97.15;22.83;;;4.70;99.90;;;;;;5053180;28;20029;-63
2021/11/06 02:52:24;;;;;;;71.43;20.13;;;4.70;99.90;;;;;;5053241;28;20032;-63
2021/11/06 02:54:50;;;;;;;50.20;18.33;;;4.60;99.90;;;;;;5052565;28;20017;-64
2021/11/06 02:57:15;;;;;;;28.90;18.77;;;4.70;99.90;;;;;;5052715;28;20051;-64
2021/11/06 02:59:41;;;;;;;45.85;20.15;;;4.60;99.90;;;;;;5053072;28;20028;-64
2021/11/06 03:02:07;;;;;;;49.03;20.67;;;4.40;99.90;;;;;;5052743;28;20067;-64
2021/11/06 03:04:37;;;;;;;36.05;19.40;;;4.50;99.90;;;;;;5052228;28;20357;-64
2021/11/06 03:07:04;;;;;;;36.50;18.80;;;4.50;99.90;;;;;;5053088;28;20028;-64
2021/11/06 03:09:30;;;;;;;63.95;19.08;;;4.60;99.90;;;;;;5052731;28;20021;-64
2021/11/06 03:11:56;;;;;;;30.45;17.27;;;4.60;99.90;;;;;;5052458;28;20497;-65
2021/11/06 03:14:23;;;;;;;33.50;17.95;;;4.40;99.90;;;;;;5052044;28;20021;-64
2021/11/06 03:16:49;;;;;;;28.95;17.13;;;4.50;99.90;;;;;;5052532;28;20032;-65
2021/11/06 03:19:15;;;;;;;62.17;18.50;;;4.40;99.90;;;;;;5051705;28;20379;-64
2021/11/06 03:21:40;;;;;;;45.15;15.30;;;4.50;99.90;;;;;;5052655;28;20024;-64
2021/11/06 03:24:07;;;;;;;34.10;14.32;;;4.40;99.90;;;;;;5052520;28;20040;-64
2021/11/06 03:26:33;;;;;;;27.92;13.77;;;4.30;99.90;;;;;;5051567;28;20466;-64
2021/11/06 03:28:58;;;;;;;31.17;14.38;;;4.50;99.90;;;;;;5052370;28;20025;-65
2021/11/06 03:31:24;;;;;;;22.75;13.70;;;4.20;99.90;;;;;;5052128;28;20025;-64
2021/11/06 03:33:50;;;;;;;23.27;15.30;;;4.20;99.90;;;;;;5052361;28;20104;-64
2021/11/06 03:36:16;;;;;;;39.25;13.90;;;4.90;99.90;;;;;;5051567;28;20029;-64
2021/11/06 03:38:41;;;;;;;37.50;14.55;;;4.40;99.90;;;;;;5052407;28;20024;-64
2021/11/06 03:41:07;;;;;;;24.25;14.65;;;4.30;99.90;;;;;;5051966;28;20036;-65
2021/11/06 03:43:33;;;;;;;24.60;13.80;;;4.30;99.90;;;;;;5052243;28;20036;-65
2021/11/06 03:45:59;;;;;;;28.73;15.55;;;4.40;99.90;;;;;;5051548;28;20418;-64
2021/11/06 03:48:24;;;;;;;23.13;14.45;;;4.40;99.90;;;;;;5051785;28;20499;-65
2021/11/06 03:50:50;;;;;;;43.75;15.65;;;4.40;99.90;;;;;;5052154;28;20043;-65
2021/11/06 03:53:16;;;;;;;33.72;14.07;;;4.40;99.90;;;;;;5034327;28;20450;-64
2021/11/06 03:55:41;;;;;;;20.40;13.40;;;4.30;99.90;;;;;;5051187;28;20431;-65
2021/11/06 03:58:07;;;;;;;25.75;14.27;;;4.30;99.90;;;;;;5051409;28;20029;-65
2021/11/06 04:00:33;;;;;;;24.77;13.75;;;4.30;99.90;;;;;;5055635;28;20028;-64
2021/11/06 04:02:59;;;;;;;26.83;15.45;;;5.00;99.90;;;;;;5055095;28;20021;-62
2021/11/06 04:05:24;;;;;;;24.42;14.93;;;4.80;99.90;;;;;;5051460;28;20043;-63
2021/11/06 04:07:50;;;;;;;28.10;14.88;;;4.40;99.90;;;;;;5052397;28;20029;-64
2021/11/06 04:10:16;;;;;;;35.67;16.95;;;4.60;99.90;;;;;;5064044;28;20064;-64
2021/11/06 04:12:42;;;;;;;30.60;15.85;;;4.50;99.90;;;;;;5064844;28;20024;-65
2021/11/06 04:15:14;;;;;;;28.25;15.00;;;4.50;99.90;;;;;;5064296;28;20033;-65
2021/11/06 04:17:40;;;;;;;25.13;14.45;;;4.50;99.90;;;;;;5064384;28;20025;-65
2021/11/06 04:20:07;;;;;;;24.80;14.55;;;4.50;99.90;;;;;;5062167;28;20108;-64
2021/11/06 04:22:34;;;;;;;25.23;13.95;;;4.40;99.90;;;;;;5052209;28;20029;-64
2021/11/06 04:25:00;;;;;;;24.17;14.27;;;4.40;99.90;;;;;;5050978;28;20025;-65
2021/11/06 04:27:25;;;;;;;22.88;14.43;;;4.40;99.90;;;;;;5051338;28;20025;-63
2021/11/06 04:29:51;;;;;;;23.10;13.60;;;4.30;99.90;;;;;;5051335;28;20039;-64
2021/11/06 04:32:16;;;;;;;25.83;14.35;;;4.50;99.90;;;;;;5051570;28;20482;-65
2021/11/06 04:34:42;;;;;;;24.65;13.63;;;4.50;99.90;;;;;;5054709;28;20087;-62
2021/11/06 04:37:08;;;;;;;31.85;14.63;;;4.30;99.90;;;;;;5052911;28;20360;-63
2021/11/06 04:39:34;;;;;;;26.25;14.43;;;4.20;99.90;;;;;;5051537;28;20059;-63
2021/11/06 04:42:00;;;;;;;27.95;15.65;;;4.20;99.90;;;;;;5051299;28;20103;-64
2021/11/06 04:44:25;;;;;;;24.63;14.60;;;4.30;99.90;;;;;;5050828;28;20112;-64
2021/11/06 04:46:51;;;;;;;33.75;13.98;;;4.30;99.90;;;;;;5051145;28;20031;-63
2021/11/06 04:49:17;;;;;;;33.95;15.05;;;4.30;99.90;;;;;;5051365;28;20067;-63
2021/11/06 04:51:43;;;;;;;35.20;14.32;;;4.20;99.90;;;;;;5051637;28;20029;-63
2021/11/06 04:54:09;;;;;;;25.80;14.20;;;4.20;99.90;;;;;;5051688;28;20078;-65
2021/11/06 04:56:34;;;;;;;29.92;16.40;;;4.30;99.90;;;;;;5050371;28;20029;-64
2021/11/06 04:59:00;;;;;;;26.40;14.60;;;4.20;99.90;;;;;;5051003;28;20651;-63
2021/11/06 05:01:27;;;;;;;26.40;13.68;;;5.00;99.90;;;;;;5051653;28;20036;-63
2021/11/06 05:03:53;;;;;;;23.60;13.70;;;4.10;99.90;;;;;;5051244;28;20056;-64
2021/11/06 05:06:19;;;;;;;24.40;13.43;;;4.20;99.90;;;;;;5050370;28;20021;-63
2021/11/06 05:08:45;;;;;;;35.47;12.55;;;4.10;99.90;;;;;;5050956;28;20363;-63
2021/11/06 05:11:10;;;;;;;25.23;12.82;;;4.20;99.90;;;;;;5050743;28;20414;-63
2021/11/06 05:13:36;;;;;;;23.25;12.20;;;4.20;99.90;;;;;;5050984;28;20060;-63
2021/11/06 05:16:02;;;;;;;23.67;13.27;;;4.10;99.90;;;;;;5050310;28;20036;-61
2021/11/06 05:18:27;;;;;;;27.98;13.35;;;4.40;99.90;;;;;;5050920;28;20028;-62
2021/11/06 05:20:53;;;;;;;36.83;13.13;;;4.10;99.90;;;;;;5051021;28;20043;-64
2021/11/06 05:23:19;;;;;;;26.52;12.38;;;4.00;99.90;;;;;;5050868;28;20112;-64
2021/11/06 05:25:45;;;;;;;21.60;11.52;;;4.90;99.90;;;;;;5050406;28;20154;-64
2021/11/06 05:28:14;;;;;;;27.20;12.82;;;4.30;99.90;;;;;;5050271;28;20528;-63
2021/11/06 05:30:41;;;;;;;32.40;12.13;;;4.00;99.90;;;;;;5050843;28;20021;-63
2021/11/06 05:33:07;;;;;;;56.60;12.52;;;3.90;99.90;;;;;;5050785;28;20110;-63
2021/11/06 05:35:33;;;;;;;21.25;12.18;;;3.90;99.90;;;;;;5050153;28;20052;-64
2021/11/06 05:37:59;;;;;;;30.10;11.38;;;4.00;99.90;;;;;;5050767;28;20040;-65
2021/11/06 05:40:25;;;;;;;22.13;10.80;;;3.80;99.90;;;;;;5050803;28;20040;-64
2021/11/06 05:42:51;;;;;;;23.10;11.40;;;3.90;99.90;;;;;;5053159;28;20025;-64
2021/11/06 05:45:17;;;;;;;24.52;11.60;;;3.80;99.90;;;;;;5053687;28;20053;-63
2021/11/06 05:47:43;;;;;;;20.40;10.75;;;3.80;99.90;;;;;;5054628;28;20021;-64
2021/11/06 05:50:11;;;;;;;36.25;11.45;;;4.60;99.90;;;;;;5054682;28;20025;-63
2021/11/06 05:52:37;;;;;;;21.40;11.00;;;3.80;99.90;;;;;;5054385;28;20025;-63
2021/11/06 05:55:06;;;;;;;23.00;11.52;;;3.90;99.90;;;;;;5053588;28;20017;-64
2021/11/06 05:57:33;;;;;;;27.52;11.88;;;3.80;99.90;;;;;;5054163;28;20091;-64
2021/11/06 05:59:58;;;;;;;22.08;10.63;;;4.10;99.90;;;;;;5054393;28;20021;-63
2021/11/06 06:02:24;;;;;;;27.17;12.15;;;3.80;99.90;;;;;;5054374;28;20594;-64
2021/11/06 06:04:50;;;;;;;24.58;11.55;;;3.90;99.90;;;;;;5035486;28;20036;-66
2021/11/06 06:07:15;;;;;;;23.08;11.65;;;3.70;99.90;;;;;;5053737;28;20474;-65
2021/11/06 06:09:41;;;;;;;33.95;11.32;;;3.90;99.90;;;;;;5053903;28;20033;-62
2021/11/06 06:12:07;;;;;;;28.15;11.80;;;3.80;99.90;;;;;;5053564;28;20104;-64
2021/11/06 06:14:33;;;;;;;23.92;10.20;;;3.60;99.90;;;;;;5053237;28;20070;-65
2021/11/06 06:16:59;;;;;;;20.58;10.48;;;3.70;99.90;;;;;;5053826;28;20108;-64
2021/11/06 06:19:25;;;;;;;17.05;9.20;;;4.30;99.90;;;;;;5053977;28;20384;-64
2021/11/06 06:21:50;;;;;;;21.70;10.32;;;3.80;99.90;;;;;;5053990;28;20021;-65
2021/11/06 06:24:16;;;;;;;25.42;9.98;;;3.60;99.90;;;;;;5053432;28;20438;-65
2021/11/06 06:26:42;;;;;;;27.88;11.20;;;3.60;99.90;;;;;;5053380;28;20025;-65
2021/11/06 06:29:07;;;;;;;32.00;11.43;;;3.70;99.90;;;;;;5039763;28;20036;-65
2021/11/06 06:31:35;;;;;;;24.83;11.25;;;4.20;99.90;;;;;;5034126;28;20075;-63
2021/11/06 06:34:01;;;;;;;30.38;11.32;;;3.90;99.90;;;;;;5033609;28;20018;-63
2021/11/06 06:36:26;;;;;;;31.23;12.65;;;3.70;99.90;;;;;;5032821;28;20021;-64
2021/11/06 06:38:52;;;;;;;28.35;11.80;;;3.80;99.90;;;;;;5033302;28;20021;-65
2021/11/06 06:41:18;;;;;;;26.83;11.35;;;4.30;99.90;;;;;;5033398;28;20025;-65
2021/11/06 06:43:43;;;;;;;33.45;11.27;;;3.60;99.90;;;;;;5033093;28;20026;-63
2021/11/06 06:46:09;;;;;;;39.97;11.23;;;3.60;99.90;;;;;;5032675;28;20026;-63
2021/11/06 06:48:35;;;;;;;28.50;11.20;;;3.90;99.90;;;;;;5033465;28;20032;-64
2021/11/06 06:51:00;;;;;;;30.85;11.98;;;3.80;99.90;;;;;;5033407;28;20029;-64
2021/11/06 06:53:26;;;;;;;26.13;11.40;;;3.80;99.90;;;;;;5027672;28;20034;-70
2021/11/06 06:55:52;;;;;;;32.92;10.70;;;3.70;99.90;;;;;;5047721;28;20494;-70
2021/11/06 06:58:18;;;;;;;28.65;11.65;;;3.70;99.90;;;;;;5071314;22;20045;-71
2021/11/06 07:00:44;;;;;;;25.00;11.23;;;4.30;99.90;;;;;;5051260;28;20115;-71
2021/11/06 07:03:10;;;;;;;25.60;11.68;;;3.80;99.90;;;;;;5052989;28;20044;-72
2021/11/06 07:05:36;;;;;;;21.48;10.80;;;3.80;99.90;;;;;;5051761;28;20534;-72
2021/11/06 07:08:04;;;;;;;29.73;10.90;;;3.80;99.90;;;;;;5052078;28;20079;-72
2021/11/06 07:10:29;;;;;;;20.23;10.32;;;3.90;99.90;;;;;;5052620;28;20017;-72
2021/11/06 07:12:55;;;;;;;24.23;10.88;;;3.90;99.90;;;;;;5041228;28;20040;-72
2021/11/06 07:15:21;;;;;;;23.73;10.98;;;4.20;99.90;;;;;;5031626;28;20468;-71
2021/11/06 07:17:46;;;;;;;27.65;11.30;;;4.00;99.90;;;;;;5032459;28;20049;-70
2021/11/06 07:20:14;;;;;;;24.20;11.55;;;3.90;99.90;;;;;;5032265;28;20025;-72
2021/11/06 07:22:40;;;;;;;25.67;10.95;;;3.90;99.90;;;;;;5014762;28;20029;-72
2021/11/06 07:25:06;;;;;;;24.25;11.05;;;4.00;99.90;;;;;;5031067;28;20080;-71
2021/11/06 07:27:34;;;;;;;22.10;10.73;;;4.00;99.90;;;;;;5032047;28;20037;-71
2021/11/06 07:30:00;;;;;;;21.27;10.80;;;4.10;99.90;;;;;;5031707;28;20490;-73
2021/11/06 07:32:25;;;;;;;30.38;11.73;;;4.10;99.90;;;;;;5047375;28;20060;-72
2021/11/06 07:34:51;;;;;;;64.05;12.30;;;4.10;99.90;;;;;;5031532;28;20048;-72
2021/11/06 07:37:17;;;;;;;32.50;11.05;;;4.10;99.90;;;;;;5031676;28;20026;-72
2021/11/06 07:39:42;;;;;;;29.17;11.23;;;4.20;99.90;;;;;;5031619;28;20021;-72
2021/11/06 07:42:08;;;;;;;26.05;12.32;;;4.00;99.90;;;;;;5032552;28;20033;-72
2021/11/06 07:44:34;;;;;;;20.73;10.93;;;4.20;99.90;;;;;;5031146;28;20030;-72
2021/11/06 07:47:00;;;;;;;24.40;11.60;;;4.30;99.90;;;;;;5031689;28;20029;-72
2021/11/06 07:49:26;;;;;;;27.98;12.10;;;4.30;99.90;;;;;;5043215;28;20040;-72
2021/11/06 07:51:57;;;;;;;35.75;12.20;;;4.20;99.90;;;;;;5051444;28;20052;-70
2021/11/06 07:54:24;;;;;;;23.92;11.15;;;4.30;99.90;;;;;;5051536;28;20100;-75
2021/11/06 07:56:49;;;;;;;25.02;12.57;;;4.30;99.90;;;;;;5034025;28;20021;-76
2021/11/06 07:59:15;;;;;;;22.98;11.55;;;4.30;99.90;;;;;;5051605;28;20039;-74
2021/11/06 08:01:41;;;;;;;31.85;11.77;;;4.40;99.90;;;;;;5052084;28;20029;-74
2021/11/06 08:04:06;;;;;;;44.10;13.32;;;4.40;99.90;;;;;;5040075;28;20040;-75
2021/11/06 08:06:32;;;;;;;41.03;12.05;;;4.50;99.90;;;;;;5012860;28;20029;-70
2021/11/06 08:08:58;;;;;;;24.27;11.70;;;4.50;99.90;;;;;;5031940;28;20034;-69
2021/11/06 08:11:26;;;;;;;27.10;12.65;;;4.40;99.90;;;;;;5032180;28;20064;-70
2021/11/06 08:13:52;;;;;;;25.02;11.48;;;4.60;99.90;;;;;;5015068;28;20017;-69
2021/11/06 08:16:18;;;;;;;28.17;11.93;;;4.60;99.90;;;;;;5031083;28;20024;-71
2021/11/06 08:18:44;;;;;;;24.85;11.52;;;4.80;99.90;;;;;;5031880;28;20100;-71
2021/11/06 08:21:10;;;;;;;30.42;12.20;;;4.70;99.90;;;;;;5031447;28;20078;-71
2021/11/06 08:23:36;;;;;;;24.35;11.50;;;4.70;99.90;;;;;;5031800;28;20233;-70
2021/11/06 08:26:04;;;;;;;26.63;12.50;;;4.70;99.90;;;;;;5031091;28;20384;-71
2021/11/06 08:28:29;;;;;;;26.38;13.13;;;4.70;99.90;;;;;;5037898;28;20367;-71
2021/11/06 08:30:55;;;;;;;26.55;13.90;;;4.80;99.90;;;;;;5052050;28;20033;-71
2021/11/06 08:33:21;;;;;;;28.83;12.25;;;4.70;99.90;;;;;;5051684;28;20021;-72
2021/11/06 08:35:47;;;;;;;22.52;12.73;;;4.60;99.90;;;;;;5050954;28;20028;-71
2021/11/06 08:38:13;;;;;;;70.55;13.48;;;4.60;99.90;;;;;;5051412;28;20028;-71
2021/11/06 08:40:40;;;;;;;106.28;15.10;;;4.60;99.90;;;;;;5051375;28;20017;-71
2021/11/06 08:43:05;;;;;;;37.70;13.07;;;4.70;99.90;;;;;;5051232;28;20106;-71
2021/11/06 08:45:31;;;;;;;54.90;12.98;;;4.70;99.90;;;;;;5050453;28;20479;-71
2021/11/06 08:47:57;;;;;;;49.47;13.70;;;4.60;99.90;;;;;;5051132;28;20033;-72
2021/11/06 08:50:26;;;;;;;21.77;12.45;;;4.60;99.90;;;;;;5050896;28;20057;-71
2021/11/06 08:52:53;;;;;;;29.58;13.27;;;4.60;99.90;;;;;;5033395;28;20028;-71
2021/11/06 08:55:20;;;;;;;39.60;13.98;;;4.70;99.90;;;;;;5050191;28;20049;-72
2021/11/06 08:57:46;;;;;;;27.60;13.30;;;4.80;99.90;;;;;;5050803;28;20466;-72
2021/11/06 09:00:20;;;;;;;45.08;12.73;;;4.80;99.90;;;;;;5050831;28;20098;-71
2021/11/06 09:02:46;;;;;;;23.63;13.85;;;4.90;99.90;;;;;;5052478;28;20402;-71
2021/11/06 09:05:12;;;;;;;40.45;14.35;;;4.90;99.90;;;;;;5051320;28;20112;-71
2021/11/06 09:07:38;;;;;;;35.05;12.52;;;4.80;99.90;;;;;;5050952;28;20139;-72
2021/11/06 09:10:07;;;;;;;61.78;12.52;;;4.70;99.90;;;;;;5051104;28;20387;-71
2021/11/06 09:12:33;;;;;;;21.30;13.00;;;4.60;99.90;;;;;;5051024;28;20104;-71
2021/11/06 09:15:00;;;;;;;36.33;13.23;;;4.80;99.90;;;;;;5050232;28;20473;-72
2021/11/06 09:17:26;;;;;;;21.27;12.55;;;4.80;99.90;;;;;;5034935;28;20458;-74
2021/11/06 09:19:51;;;;;;;35.67;13.93;;;4.80;99.90;;;;;;5054888;28;20040;-72
2021/11/06 09:22:18;;;;;;;33.13;14.02;;;4.90;99.90;;;;;;5054760;28;20025;-71
2021/11/06 09:24:44;;;;;;;23.92;13.63;;;4.90;99.90;;;;;;5053935;28;20029;-71
2021/11/06 09:27:11;;;;;;;26.38;13.68;;;5.00;99.90;;;;;;5054603;28;20021;-72
2021/11/06 09:29:37;;;;;;;29.02;14.23;;;4.90;99.90;;;;;;5054005;28;20035;-72
2021/11/06 09:32:03;;;;;;;30.55;14.75;;;5.00;99.90;;;;;;5054392;28;20074;-62
2021/11/06 09:34:29;;;;;;;26.58;15.25;;;4.90;99.90;;;;;;5053862;28;20013;-68
2021/11/06 09:36:56;;;;;;;43.17;14.43;;;5.00;99.90;;;;;;5054109;28;20079;-66
2021/11/06 09:39:21;;;;;;;54.42;14.40;;;5.10;99.90;;;;;;5054223;28;20017;-72
2021/11/06 09:41:47;;;;;;;33.95;14.55;;;5.10;99.90;;;;;;5054262;28;20044;-66
2021/11/06 09:44:13;;;;;;;24.73;14.52;;;5.10;99.90;;;;;;5054041;28;20036;-64
2021/11/06 09:46:39;;;;;;;26.77;15.05;;;4.90;99.90;;;;;;5053089;28;20029;-66
2021/11/06 09:49:05;;;;;;;35.13;14.98;;;4.90;99.90;;;;;;5053968;28;20024;-64
2021/11/06 09:51:30;;;;;;;27.92;15.32;;;5.20;99.90;;;;;;5054548;28;20055;-64
2021/11/06 09:53:56;;;;;;;38.72;15.60;;;5.10;99.90;;;;;;5054148;28;20542;-62
2021/11/06 09:56:26;;;;;;;30.63;15.40;;;5.40;99.90;;;;;;5053523;28;20033;-61
2021/11/06 09:58:56;;;;;;;52.92;14.93;;;5.30;99.90;;;;;;5053204;28;20040;-60
2021/11/06 10:01:22;;;;;;;46.72;17.13;;;5.50;99.90;;;;;;5054110;28;20372;-63
2021/11/06 10:03:48;;;;;;;28.52;14.40;;;5.50;99.90;;;;;;5053918;28;20032;-61
2021/11/06 10:06:23;;;;;;;24.42;13.93;;;5.40;99.90;;;;;;5053568;28;20029;-63
2021/11/06 10:08:51;;;;;;;40.25;16.45;;;5.40;99.90;;;;;;5057108;28;20025;-59
2021/11/06 10:11:22;;;;;;;32.60;15.93;;;5.40;99.90;;;;;;5054302;28;20033;-62
2021/11/06 10:13:59;;;;;;;29.40;15.40;;;5.40;99.90;;;;;;5053768;28;20112;-61
2021/11/06 10:16:42;;;;;;;35.17;17.52;;;5.40;99.90;;;;;;5052742;28;20471;-63
2021/11/06 10:19:23;;;;;;;29.33;16.17;;;5.50;99.90;;;;;;5053394;28;20139;-64
2021/11/06 10:22:11;;;;;;;30.30;15.55;;;5.50;99.90;;;;;;5053460;28;20036;-61
2021/11/06 10:24:51;;;;;;;38.50;17.13;;;5.60;99.90;;;;;;5052826;28;20133;-61
2021/11/06 10:27:29;;;;;;;50.95;16.17;;;5.60;99.90;;;;;;5053396;28;20025;-68
2021/11/06 10:30:09;;;;;;;45.15;15.95;;;5.50;99.90;;;;;;5052811;28;20029;-60
2021/11/06 10:32:42;;;;;;;31.98;16.75;;;5.60;99.90;;;;;;5053424;28;20025;-61
2021/11/06 10:35:25;;;;;;;39.45;15.95;;;5.50;99.90;;;;;;5052575;28;20025;-64
2021/11/06 10:38:04;;;;;;;32.75;16.38;;;5.60;99.90;;;;;;5053570;28;20032;-59
2021/11/06 10:40:36;;;;;;;35.33;18.52;;;5.70;99.90;;;;;;5053076;28;20021;-63
2021/11/06 10:43:03;;;;;;;27.77;16.55;;;5.80;99.90;;;;;;5053549;28;20044;-64
2021/11/06 10:45:35;;;;;;;32.47;18.65;;;6.00;99.90;;;;;;5052083;28;20079;-62
2021/11/06 10:48:06;;;;;;;26.85;15.95;;;6.10;99.90;;;;;;5053428;28;20036;-64
2021/11/06 10:50:50;;;;;;;50.42;17.30;;;6.00;99.90;;;;;;5033103;28;20034;-62
2021/11/06 10:53:40;;;;;;;31.05;16.27;;;6.00;99.90;;;;;;5032917;28;20033;-60
2021/11/06 10:56:18;;;;;;;38.05;18.52;;;5.80;99.90;;;;;;5032259;28;20028;-61
2021/11/06 10:58:47;;;;;;;26.88;15.85;;;6.00;99.90;;;;;;5040531;28;20116;-64
2021/11/06 11:01:16;;;;;;;29.38;16.88;;;5.90;99.90;;;;;;5052832;28;20033;-60
2021/11/06 11:03:45;;;;;;;27.42;16.63;;;6.30;99.90;;;;;;5052703;28;20090;-63
2021/11/06 11:06:29;;;;;;;30.40;17.05;;;6.10;99.90;;;;;;5044541;28;20021;-72
2021/11/06 11:08:57;;;;;;;25.77;14.98;;;6.20;99.90;;;;;;5043862;28;20017;-63
2021/11/06 11:11:29;;;;;;;26.77;14.95;;;6.20;99.90;;;;;;5043909;28;20037;-60
2021/11/06 11:14:16;;;;;;;28.40;15.77;;;6.10;99.90;;;;;;5052305;28;20536;-61
2021/11/06 11:17:01;;;;;;;31.30;16.60;;;5.80;99.90;;;;;;5024956;28;20033;-63
2021/11/06 11:19:41;;;;;;;27.15;16.30;;;5.90;99.90;;;;;;5032752;28;20018;-60
2021/11/06 11:22:21;;;;;;;30.63;17.40;;;5.90;99.90;;;;;;5032367;28;20025;-60
2021/11/06 11:24:50;;;;;;;28.10;16.90;;;6.00;99.90;;;;;;5031753;28;20495;-62
2021/11/06 11:27:16;;;;;;;29.25;16.77;;;6.00;99.90;;;;;;5032251;28;20423;-64
2021/11/06 11:29:44;;;;;;;29.17;17.80;;;6.00;99.90;;;;;;5048064;28;20419;-62
2021/11/06 11:32:11;;;;;;;29.70;17.27;;;6.30;99.90;;;;;;5052484;28;20028;-65
2021/11/06 11:34:40;;;;;;;30.73;17.73;;;6.30;99.90;;;;;;5051584;28;20029;-65
2021/11/06 11:37:06;;;;;;;31.92;17.50;;;6.40;99.90;;;;;;5052107;28;20021;-61
2021/11/06 11:39:32;;;;;;;28.70;17.73;;;6.40;99.90;;;;;;5054576;28;20082;-59
2021/11/06 11:42:38;;;;;;;31.33;18.27;;;6.10;99.90;;;;;;5044648;28;20079;-69
2021/11/06 11:45:16;;;;;;;28.63;17.38;;;6.20;99.90;;;;;;5016134;28;20034;-69
2021/11/06 11:47:48;;;;;;;27.00;16.83;;;6.30;99.90;;;;;;5049585;28;20021;-70
2021/11/06 11:50:15;;;;;;;;;;;6.30;99.90;;;;;;5045955;28;20053;-70
2021/11/06 11:52:43;;;;;;;31.95;18.23;;;6.50;99.90;;;;;;5043138;28;20004;-64
2021/11/06 11:55:33;;;;;;;35.38;19.38;;;6.20;99.90;;;;;;5046465;28;20032;-69
2021/11/06 11:58:10;;;;;;;31.85;18.30;;;6.30;99.90;;;;;;5032744;28;20043;-70
2021/11/06 12:00:41;;;;;;;30.67;19.13;;;6.30;99.90;;;;;;5040190;28;20025;-70
2021/11/06 12:03:09;;;;;;;35.67;19.25;;;6.30;99.90;;;;;;5047190;28;20435;-70
2021/11/06 12:05:41;;;;;;;35.55;20.85;;;6.20;99.90;;;;;;5039550;28;20018;-69
2021/11/06 12:08:10;;;;;;;33.25;19.88;;;6.20;99.90;;;;;;5039848;28;20432;-70
2021/11/06 12:10:42;;;;;;;32.15;20.45;;;6.20;99.90;;;;;;5049564;28;20083;-70
2021/11/06 12:13:31;;;;;;;35.40;20.80;;;6.30;99.90;;;;;;5043548;28;20017;-70
2021/11/06 12:16:06;;;;;;;34.35;18.77;;;6.50;99.90;;;;;;5034270;28;20033;-70
2021/11/06 12:18:35;;;;;;;34.28;19.83;;;6.40;99.90;;;;;;5050898;28;20029;-70
2021/11/06 12:21:20;;;;;;;34.50;20.45;;;6.40;99.90;;;;;;5043100;28;20557;-70
2021/11/06 12:23:54;;;;;;;33.95;19.35;;;6.50;99.90;;;;;;5043116;28;20040;-69
2021/11/06 12:26:22;;;;;;;32.72;19.92;;;6.50;99.90;;;;;;5045504;28;20052;-69
2021/11/06 12:28:50;;;;;;;34.30;20.73;;;6.80;99.90;;;;;;5031428;28;20495;-69
2021/11/06 12:31:29;;;;;;;34.45;21.13;;;6.90;99.90;;;;;;5048094;28;20344;-69
2021/11/06 12:33:56;;;;;;;36.25;19.98;;;7.00;99.90;;;;;;5043119;28;20108;-69
2021/11/06 12:36:26;;;;;;;34.15;20.38;;;6.80;99.90;;;;;;5050672;28;20049;-69
2021/11/06 12:38:53;;;;;;;38.47;21.85;;;6.60;99.90;;;;;;5051291;28;20506;-69
2021/11/06 12:41:26;;;;;;;35.35;20.38;;;6.70;99.90;;;;;;5051373;28;20029;-69